createdAt,value
2022-10-29T00:02:25.866Z,55.20
2022-10-29T00:04:52.692Z,55.10
2022-10-29T00:07:19.452Z,55.30
2022-10-29T00:09:46.161Z,55.30
2022-10-29T00:12:12.952Z,55.20
2022-10-29T00:14:39.733Z,55.20
2022-10-29T00:17:06.506Z,55.20
2022-10-29T00:19:34.656Z,55.30
2022-10-29T00:22:01.558Z,55.30
2022-10-29T00:24:28.330Z,55.40
2022-10-29T00:26:55.123Z,55.40
2022-10-29T00:29:21.919Z,55.40
2022-10-29T00:31:50.491Z,55.90
2022-10-29T00:34:17.326Z,56.10
2022-10-29T00:36:45.515Z,56.00
2022-10-29T00:39:14.577Z,55.90
2022-10-29T00:41:41.605Z,55.70
2022-10-29T00:44:28.456Z,55.50
2022-10-29T00:47:02.389Z,55.30
2022-10-29T00:49:30.579Z,55.30
2022-10-29T00:52:01.007Z,55.30
2022-10-29T00:54:30.301Z,55.40
2022-10-29T00:57:00.594Z,55.20
2022-10-29T00:59:27.930Z,55.20
2022-10-29T01:01:55.599Z,55.10
2022-10-29T01:04:23.224Z,55.10
2022-10-29T01:06:50.677Z,55.10
2022-10-29T01:09:18.834Z,55.00
2022-10-29T01:11:56.510Z,55.00
2022-10-29T01:14:30.651Z,55.10
2022-10-29T01:17:05.676Z,54.90
2022-10-29T01:20:01.961Z,55.00
2022-10-29T01:22:35.069Z,55.00
2022-10-29T01:25:25.643Z,54.90
2022-10-29T01:28:05.398Z,55.00
2022-10-29T01:31:05.061Z,55.00
2022-10-29T01:33:40.730Z,54.90
2022-10-29T01:36:16.926Z,55.10
2022-10-29T01:38:52.009Z,55.00
2022-10-29T01:41:25.365Z,55.00
2022-10-29T01:43:55.657Z,55.00
2022-10-29T01:46:28.702Z,54.90
2022-10-29T01:49:01.917Z,54.90
2022-10-29T01:51:31.110Z,54.90
2022-10-29T01:54:00.364Z,55.30
2022-10-29T01:56:27.321Z,55.20
2022-10-29T01:58:57.197Z,55.20
2022-10-29T02:01:36.895Z,55.20
2022-10-29T02:04:20.599Z,55.30
2022-10-29T02:06:59.337Z,55.10
2022-10-29T02:09:33.756Z,55.10
2022-10-29T02:12:08.431Z,55.30
2022-10-29T02:14:40.861Z,55.40
2022-10-29T02:17:09.091Z,55.80
2022-10-29T02:19:36.705Z,56.10
2022-10-29T02:22:03.711Z,55.90
2022-10-29T02:24:30.598Z,56.00
2022-10-29T02:26:57.371Z,56.40
2022-10-29T02:29:24.118Z,56.50
2022-10-29T02:31:50.875Z,56.60
2022-10-29T02:34:19.091Z,56.80
2022-10-29T02:36:45.854Z,56.80
2022-10-29T02:39:12.569Z,56.60
2022-10-29T02:41:39.354Z,56.70
2022-10-29T02:44:06.261Z,56.90
2022-10-29T02:46:33.055Z,57.40
2022-10-29T02:48:59.777Z,57.20
2022-10-29T02:51:27.877Z,57.20
2022-10-29T02:53:54.745Z,57.50
2022-10-29T02:56:21.470Z,57.10
2022-10-29T02:58:48.249Z,57.00
2022-10-29T03:01:15.105Z,56.80
2022-10-29T03:03:41.943Z,56.60
2022-10-29T03:06:12.598Z,56.50
2022-10-29T03:08:40.816Z,56.70
2022-10-29T03:11:07.705Z,56.60
2022-10-29T03:13:34.460Z,57.00
2022-10-29T03:16:01.290Z,56.90
2022-10-29T03:18:28.018Z,56.90
2022-10-29T03:20:54.773Z,57.00
2022-10-29T03:23:21.683Z,56.70
2022-10-29T03:25:55.508Z,56.90
2022-10-29T03:28:24.695Z,57.50
2022-10-29T03:30:51.448Z,57.10
2022-10-29T03:33:18.347Z,57.50
2022-10-29T03:35:45.347Z,57.60
2022-10-29T03:38:12.164Z,57.10
2022-10-29T03:40:38.867Z,57.20
2022-10-29T03:43:07.077Z,57.50
2022-10-29T03:45:33.816Z,58.00
2022-10-29T03:48:00.533Z,57.90
2022-10-29T03:50:27.319Z,57.90
2022-10-29T03:52:54.076Z,57.90
2022-10-29T03:55:20.813Z,58.00
2022-10-29T03:57:47.575Z,58.00
2022-10-29T04:00:16.683Z,57.60
2022-10-29T04:02:43.622Z,57.70
2022-10-29T04:05:10.403Z,57.50
2022-10-29T04:07:37.103Z,57.70
2022-10-29T04:10:04.630Z,57.50
2022-10-29T04:12:31.361Z,57.50
2022-10-29T04:14:58.069Z,57.60
2022-10-29T04:17:26.342Z,57.80
2022-10-29T04:19:53.040Z,57.50
2022-10-29T04:30:41.437Z,57.50
2022-10-29T04:33:09.569Z,57.90
2022-10-29T04:35:36.336Z,58.00
2022-10-29T04:38:08.222Z,58.00
2022-10-29T04:40:34.954Z,58.10
2022-10-29T04:43:01.688Z,57.70
2022-10-29T04:45:28.468Z,57.50
2022-10-29T04:47:59.375Z,57.40
2022-10-29T04:50:27.803Z,58.20
2022-10-29T04:52:58.345Z,58.00
2022-10-29T04:55:25.224Z,57.90
2022-10-29T04:57:52.030Z,57.90
2022-10-29T05:00:19.003Z,58.20
2022-10-29T05:02:47.932Z,57.90
2022-10-29T05:05:14.818Z,57.80
2022-10-29T05:07:42.995Z,57.40
2022-10-29T05:10:10.615Z,57.70
2022-10-29T05:12:37.570Z,57.70
2022-10-29T05:15:05.055Z,58.00
2022-10-29T05:17:31.956Z,57.70
2022-10-29T05:19:58.660Z,57.50
2022-10-29T05:22:25.413Z,57.40
2022-10-29T05:24:53.503Z,57.80
2022-10-29T05:27:20.307Z,57.70
2022-10-29T05:29:47.037Z,57.90
2022-10-29T05:32:13.853Z,58.20
2022-10-29T05:34:44.418Z,58.10
2022-10-29T05:37:11.436Z,57.70
2022-10-29T05:39:38.167Z,57.80
2022-10-29T05:42:06.420Z,57.90
2022-10-29T05:44:33.109Z,58.00
2022-10-29T05:46:59.837Z,57.80
2022-10-29T05:49:26.592Z,58.20
2022-10-29T05:51:53.371Z,58.10
2022-10-29T05:54:20.078Z,57.60
2022-10-29T05:56:49.644Z,57.50
2022-10-29T05:59:17.832Z,57.40
2022-10-29T06:01:44.717Z,57.40
2022-10-29T06:04:11.556Z,57.70
2022-10-29T06:06:38.309Z,57.90
2022-10-29T06:09:05.235Z,58.00
2022-10-29T06:11:31.984Z,57.60
2022-10-29T06:13:58.689Z,58.00
2022-10-29T06:16:26.859Z,57.60
2022-10-29T06:18:53.618Z,58.10
2022-10-29T06:21:20.321Z,57.80
2022-10-29T06:23:47.083Z,58.00
2022-10-29T06:26:13.846Z,58.00
2022-10-29T06:28:40.725Z,58.20
2022-10-29T06:31:07.463Z,58.10
2022-10-29T06:33:35.509Z,57.90
2022-10-29T06:36:02.266Z,58.40
2022-10-29T06:38:29.140Z,58.10
2022-10-29T06:40:55.905Z,58.00
2022-10-29T06:43:22.743Z,58.20
2022-10-29T06:45:49.614Z,58.40
2022-10-29T06:48:21.764Z,58.20
2022-10-29T06:50:50.762Z,58.20
2022-10-29T06:53:17.672Z,58.10
2022-10-29T06:55:44.661Z,58.20
2022-10-29T06:58:13.085Z,58.10
2022-10-29T07:00:41.080Z,58.00
2022-10-29T07:03:11.737Z,58.20
2022-10-29T07:05:38.466Z,58.00
2022-10-29T07:08:06.748Z,58.10
2022-10-29T07:10:34.144Z,58.40
2022-10-29T07:13:01.254Z,58.20
2022-10-29T07:15:30.809Z,58.30
2022-10-29T07:17:59.785Z,58.40
2022-10-29T07:20:26.880Z,58.60
2022-10-29T07:22:53.658Z,58.40
2022-10-29T07:25:21.801Z,58.40
2022-10-29T07:27:48.787Z,58.50
2022-10-29T07:30:16.138Z,58.40
2022-10-29T07:32:42.985Z,58.30
2022-10-29T07:35:09.856Z,58.30
2022-10-29T07:37:36.589Z,58.60
2022-10-29T07:40:03.504Z,58.50
2022-10-29T07:42:31.703Z,58.30
2022-10-29T07:44:58.502Z,58.20
2022-10-29T07:47:25.356Z,58.30
2022-10-29T07:49:52.126Z,58.30
2022-10-29T07:52:18.925Z,58.30
2022-10-29T07:54:45.719Z,58.20
2022-10-29T07:57:12.422Z,58.30
2022-10-29T07:59:40.594Z,58.20
2022-10-29T08:02:09.192Z,58.20
2022-10-29T08:04:35.979Z,58.20
2022-10-29T08:07:02.855Z,58.30
2022-10-29T08:09:29.611Z,58.10
2022-10-29T08:11:56.437Z,58.10
2022-10-29T08:14:23.170Z,58.10
2022-10-29T08:16:53.214Z,58.20
2022-10-29T08:19:19.977Z,58.30
2022-10-29T08:21:46.749Z,58.30
2022-10-29T08:24:13.524Z,58.30
2022-10-29T08:26:40.252Z,58.10
2022-10-29T08:29:07.030Z,58.00
2022-10-29T08:31:33.797Z,58.00
2022-10-29T08:34:04.106Z,58.00
2022-10-29T08:36:33.961Z,58.10
2022-10-29T08:39:00.759Z,58.20
2022-10-29T08:41:36.211Z,58.40
2022-10-29T08:44:31.059Z,59.30
2022-10-29T08:47:07.708Z,58.60
2022-10-29T08:49:43.279Z,58.60
2022-10-29T08:52:13.312Z,58.60
2022-10-29T08:54:45.222Z,58.20
2022-10-29T08:57:16.330Z,58.70
2022-10-29T09:00:00.650Z,58.00
2022-10-29T09:02:27.483Z,57.80
2022-10-29T09:04:56.095Z,57.40
2022-10-29T09:07:37.673Z,57.40
2022-10-29T09:10:11.246Z,57.20
2022-10-29T09:12:48.314Z,57.10
2022-10-29T09:15:33.852Z,57.10
2022-10-29T09:18:14.830Z,57.10
2022-10-29T09:20:52.796Z,57.10
2022-10-29T09:23:30.290Z,57.30
2022-10-29T09:26:02.436Z,57.20
2022-10-29T09:28:40.126Z,57.20
2022-10-29T09:31:18.188Z,57.50
2022-10-29T09:33:47.929Z,57.40
2022-10-29T09:36:18.357Z,57.60
2022-10-29T09:38:52.882Z,57.60
2022-10-29T09:41:21.993Z,57.60
2022-10-29T09:43:52.250Z,57.70
2022-10-29T09:46:26.906Z,57.70
2022-10-29T09:49:04.506Z,57.80
2022-10-29T09:51:42.369Z,57.70
2022-10-29T09:54:09.945Z,57.50
2022-10-29T09:56:42.063Z,57.40
2022-10-29T09:59:16.710Z,57.20
2022-10-29T10:01:43.856Z,57.40
2022-10-29T10:04:32.168Z,57.20
2022-10-29T10:07:07.080Z,57.10
2022-10-29T10:09:54.889Z,56.90
2022-10-29T10:12:24.003Z,57.00
2022-10-29T10:15:02.489Z,57.10
2022-10-29T10:17:50.200Z,57.10
2022-10-29T10:20:31.639Z,57.40
2022-10-29T10:22:59.953Z,57.10
2022-10-29T10:25:35.835Z,56.80
2022-10-29T10:28:17.086Z,56.40
2022-10-29T10:30:44.334Z,57.20
2022-10-29T10:35:48.231Z,56.60
2022-10-29T10:38:16.717Z,56.70
2022-10-29T10:40:43.674Z,56.20
2022-10-29T10:43:20.282Z,56.10
2022-10-29T10:45:53.632Z,55.70
2022-10-29T10:48:22.549Z,55.80
2022-10-29T10:50:49.546Z,55.60
2022-10-29T10:53:20.482Z,55.40
2022-10-29T10:55:50.499Z,55.90
2022-10-29T10:58:23.948Z,55.50
2022-10-29T11:00:57.554Z,55.70
2022-10-29T11:03:30.307Z,55.30
2022-10-29T11:06:03.973Z,55.20
2022-10-29T11:08:36.735Z,55.20
2022-10-29T11:11:10.041Z,55.00
2022-10-29T11:13:39.769Z,54.90
2022-10-29T11:16:16.425Z,54.70
2022-10-29T11:18:50.692Z,54.80
2022-10-29T11:21:23.943Z,54.50
2022-10-29T11:24:01.090Z,54.40
2022-10-29T11:26:32.997Z,53.90
2022-10-29T11:29:11.539Z,54.10
2022-10-29T11:31:47.118Z,54.30
2022-10-29T11:34:19.071Z,54.00
2022-10-29T11:36:54.088Z,53.90
2022-10-29T11:39:28.797Z,53.70
2022-10-29T11:41:57.988Z,53.80
2022-10-29T11:44:25.641Z,53.80
2022-10-29T11:47:08.488Z,53.60
2022-10-29T11:49:50.840Z,53.30
2022-10-29T11:52:31.752Z,53.30
2022-10-29T11:55:18.891Z,53.30
2022-10-29T11:57:52.620Z,53.00
2022-10-29T12:00:21.200Z,53.20
2022-10-29T12:03:28.730Z,53.10
2022-10-29T12:06:04.886Z,53.10
2022-10-29T12:08:45.063Z,53.00
2022-10-29T12:11:22.433Z,53.30
2022-10-29T12:13:58.634Z,53.00
2022-10-29T12:16:36.435Z,52.70
2022-10-29T12:19:12.206Z,52.70
2022-10-29T12:21:50.546Z,53.30
2022-10-29T12:24:31.998Z,53.30
2022-10-29T12:27:04.809Z,52.90
2022-10-29T12:29:39.974Z,53.00
2022-10-29T12:32:12.903Z,53.00
2022-10-29T12:34:45.212Z,53.00
2022-10-29T12:37:18.552Z,53.10
2022-10-29T12:39:48.772Z,53.40
2022-10-29T12:42:20.639Z,53.00
2022-10-29T12:44:56.714Z,52.80
2022-10-29T12:47:32.016Z,53.30
2022-10-29T12:50:09.095Z,53.00
2022-10-29T12:52:41.170Z,53.00
2022-10-29T12:55:12.349Z,52.90
2022-10-29T12:57:40.714Z,53.00
2022-10-29T13:00:45.249Z,53.20
2022-10-29T13:03:12.197Z,53.20
2022-10-29T13:05:41.581Z,53.20
2022-10-29T13:08:30.815Z,53.10
2022-10-29T13:10:58.089Z,53.20
2022-10-29T13:13:56.285Z,53.30
2022-10-29T13:16:28.829Z,52.70
2022-10-29T13:19:06.903Z,52.60
2022-10-29T13:22:00.075Z,52.10
2022-10-29T13:24:28.316Z,52.70
2022-10-29T13:27:05.101Z,52.70
2022-10-29T13:29:45.089Z,52.00
2022-10-29T13:32:35.629Z,51.80
2022-10-29T13:35:04.546Z,51.80
2022-10-29T13:38:13.206Z,51.80
2022-10-29T13:41:15.347Z,51.40
2022-10-29T13:43:51.624Z,52.00
2022-10-29T13:46:45.860Z,52.00
2022-10-29T13:49:22.399Z,51.80
2022-10-29T13:51:55.895Z,52.00
2022-10-29T13:54:40.106Z,52.20
2022-10-29T13:57:16.136Z,52.00
2022-10-29T13:59:47.208Z,51.90
2022-10-29T14:02:29.656Z,52.00
2022-10-29T14:05:02.956Z,51.90
2022-10-29T14:07:37.643Z,52.30
2022-10-29T14:10:12.942Z,52.20
2022-10-29T14:12:41.703Z,53.00
2022-10-29T14:15:10.741Z,52.30
2022-10-29T14:17:38.998Z,52.50
2022-10-29T14:20:18.866Z,52.70
2022-10-29T14:22:45.651Z,52.70
2022-10-29T14:25:33.174Z,52.70
2022-10-29T14:28:23.650Z,52.60
2022-10-29T14:31:01.152Z,52.80
2022-10-29T14:33:31.283Z,53.10
2022-10-29T14:36:04.090Z,53.20
2022-10-29T14:38:40.159Z,53.20
2022-10-29T14:41:07.227Z,53.20
2022-10-29T14:43:34.125Z,53.30
2022-10-29T14:46:17.032Z,53.30
2022-10-29T14:48:53.700Z,53.20
2022-10-29T14:51:21.408Z,53.40
2022-10-29T14:53:54.180Z,53.70
2022-10-29T14:56:23.133Z,54.00
2022-10-29T14:58:49.912Z,54.10
2022-10-29T15:01:17.319Z,54.00
2022-10-29T15:03:44.174Z,54.10
2022-10-29T15:06:15.778Z,54.30
2022-10-29T15:08:44.580Z,54.10
2022-10-29T15:11:35.961Z,54.10
2022-10-29T15:14:04.993Z,54.70
2022-10-29T15:16:36.944Z,54.20
2022-10-29T15:19:16.135Z,54.30
2022-10-29T15:21:44.700Z,54.30
2022-10-29T15:24:20.801Z,54.40
2022-10-29T15:26:50.956Z,54.30
2022-10-29T15:29:23.247Z,54.30
2022-10-29T15:31:50.145Z,54.30
2022-10-29T15:34:20.638Z,54.40
2022-10-29T15:36:50.707Z,54.20
2022-10-29T15:39:23.353Z,54.20
2022-10-29T15:41:50.822Z,54.50
2022-10-29T15:44:35.194Z,54.20
2022-10-29T15:47:14.826Z,54.10
2022-10-29T15:49:41.594Z,54.30
2022-10-29T15:52:14.225Z,54.40
2022-10-29T15:54:40.961Z,54.50
2022-10-29T15:57:08.744Z,54.40
2022-10-29T15:59:35.498Z,54.40
2022-10-29T16:02:02.414Z,54.50
2022-10-29T16:04:29.358Z,54.50
2022-10-29T16:06:56.264Z,54.60
2022-10-29T16:09:24.376Z,54.50
2022-10-29T16:11:51.129Z,54.40
2022-10-29T16:14:17.945Z,54.50
2022-10-29T16:16:44.872Z,54.60
2022-10-29T16:19:11.623Z,54.30
2022-10-29T16:21:38.462Z,54.50
2022-10-29T16:24:05.893Z,54.40
2022-10-29T16:26:34.150Z,55.20
2022-10-29T16:29:00.872Z,54.70
2022-10-29T16:31:28.874Z,54.60
2022-10-29T16:33:58.365Z,55.20
2022-10-29T16:36:25.520Z,54.60
2022-10-29T16:38:52.438Z,54.60
2022-10-29T16:41:20.123Z,54.70
2022-10-29T16:43:48.922Z,54.60
2022-10-29T16:46:15.776Z,54.80
2022-10-29T16:48:42.578Z,54.70
2022-10-29T16:51:09.500Z,54.90
2022-10-29T16:53:36.425Z,54.70
2022-10-29T16:56:03.910Z,54.90
2022-10-29T16:58:31.181Z,54.90
2022-10-29T17:01:06.918Z,54.70
2022-10-29T17:03:33.971Z,54.70
2022-10-29T17:06:06.272Z,54.90
2022-10-29T17:08:33.396Z,54.80
2022-10-29T17:11:00.707Z,54.80
2022-10-29T17:13:27.621Z,54.80
2022-10-29T17:15:54.339Z,54.80
2022-10-29T17:18:22.487Z,54.80
2022-10-29T17:20:56.464Z,54.70
2022-10-29T17:23:23.598Z,54.80
2022-10-29T17:25:52.290Z,54.80
2022-10-29T17:28:19.222Z,55.10
2022-10-29T17:30:46.062Z,55.10
2022-10-29T17:33:12.822Z,55.20
2022-10-29T17:35:40.926Z,55.30
2022-10-29T17:38:07.981Z,55.30
2022-10-29T17:40:34.796Z,55.20
2022-10-29T17:43:01.535Z,55.10
2022-10-29T17:45:28.744Z,55.20
2022-10-29T17:47:56.632Z,55.40
2022-10-29T17:50:24.832Z,55.30
2022-10-29T17:52:53.658Z,55.40
2022-10-29T17:55:20.445Z,55.20
2022-10-29T17:57:47.174Z,55.30
2022-10-29T18:00:14.805Z,55.20
2022-10-29T18:02:41.767Z,55.30
2022-10-29T18:05:09.148Z,55.30
2022-10-29T18:07:35.942Z,55.10
2022-10-29T18:10:04.555Z,55.30
2022-10-29T18:12:31.517Z,55.30
2022-10-29T18:14:58.403Z,55.20
2022-10-29T18:17:25.420Z,55.30
2022-10-29T18:19:52.574Z,55.30
2022-10-29T18:22:19.328Z,55.30
2022-10-29T18:24:46.204Z,55.30
2022-10-29T18:27:14.353Z,55.30
2022-10-29T18:29:41.070Z,55.30
2022-10-29T18:32:07.802Z,55.30
2022-10-29T18:34:34.508Z,55.50
2022-10-29T18:37:01.225Z,55.30
2022-10-29T18:39:27.988Z,55.40
2022-10-29T18:41:54.698Z,55.30
2022-10-29T18:44:22.799Z,55.50
2022-10-29T18:46:49.551Z,55.50
2022-10-29T18:49:16.294Z,55.50
2022-10-29T18:51:43.013Z,55.50
2022-10-29T18:54:10.981Z,55.60
2022-10-29T18:56:37.798Z,55.70
2022-10-29T18:59:05.332Z,55.80
2022-10-29T19:01:34.989Z,55.70
2022-10-29T19:04:04.150Z,55.80
2022-10-29T19:06:33.173Z,55.80
2022-10-29T19:09:01.021Z,55.80
2022-10-29T19:11:28.325Z,55.80
2022-10-29T19:13:56.677Z,56.20
2022-10-29T19:16:24.260Z,56.30
2022-10-29T19:18:56.646Z,56.30
2022-10-29T19:21:24.093Z,56.50
2022-10-29T19:23:53.972Z,56.10
2022-10-29T19:26:20.770Z,56.10
2022-10-29T19:28:48.557Z,56.00
2022-10-29T19:31:17.384Z,56.00
2022-10-29T19:33:48.289Z,56.00
2022-10-29T19:36:17.422Z,56.10
2022-10-29T19:38:44.303Z,56.20
2022-10-29T19:41:11.460Z,56.10
2022-10-29T19:43:38.973Z,56.10
2022-10-29T19:46:06.961Z,56.20
2022-10-29T19:48:33.768Z,56.40
2022-10-29T19:51:00.516Z,56.20
2022-10-29T19:53:28.640Z,56.50
2022-10-29T19:55:55.655Z,56.50
2022-10-29T19:58:24.856Z,56.20
2022-10-29T20:00:53.072Z,56.40
2022-10-29T20:03:20.550Z,56.30
2022-10-29T20:05:47.595Z,56.60
2022-10-29T20:08:16.307Z,56.60
2022-10-29T20:10:44.765Z,56.50
2022-10-29T20:13:11.483Z,56.40
2022-10-29T20:15:38.676Z,56.60
2022-10-29T20:18:05.589Z,56.30
2022-10-29T20:20:32.337Z,56.50
2022-10-29T20:22:59.516Z,56.70
2022-10-29T20:25:26.883Z,56.60
2022-10-29T20:27:54.979Z,56.50
2022-10-29T20:30:21.892Z,56.80
2022-10-29T20:32:48.964Z,56.90
2022-10-29T20:35:15.933Z,56.70
2022-10-29T20:37:42.716Z,56.90
2022-10-29T20:40:10.917Z,56.80
2022-10-29T20:42:37.697Z,56.90
2022-10-29T20:45:06.832Z,56.70
2022-10-29T20:47:33.641Z,56.90
2022-10-29T20:50:00.413Z,56.70
2022-10-29T20:52:27.136Z,56.80
2022-10-29T20:54:53.830Z,56.60
2022-10-29T20:57:20.573Z,56.60
2022-10-29T20:59:47.314Z,56.60
2022-10-29T21:02:15.579Z,56.50
2022-10-29T21:04:42.576Z,56.50
2022-10-29T21:07:09.419Z,56.50
2022-10-29T21:09:36.229Z,56.30
2022-10-29T21:12:03.082Z,56.50
2022-10-29T21:14:29.825Z,56.40
2022-10-29T21:16:56.662Z,56.30
2022-10-29T21:19:24.742Z,56.20
2022-10-29T21:21:51.509Z,56.50
2022-10-29T21:24:18.238Z,56.50
2022-10-29T21:26:45.018Z,56.40
2022-10-29T21:29:11.751Z,56.20
2022-10-29T21:31:38.447Z,56.20
2022-10-29T21:34:05.215Z,56.20
2022-10-29T21:36:33.284Z,56.10
2022-10-29T21:39:00.061Z,56.10
2022-10-29T21:41:26.828Z,56.10
2022-10-29T21:43:53.630Z,56.00
2022-10-29T21:46:20.436Z,55.90
2022-10-29T21:48:47.243Z,55.90
2022-10-29T21:51:15.120Z,56.00
2022-10-29T21:53:43.206Z,55.90
2022-10-29T21:56:12.309Z,55.90
2022-10-29T21:58:39.067Z,55.90
2022-10-29T22:01:07.863Z,55.70
2022-10-29T22:03:35.806Z,55.80
2022-10-29T22:06:04.189Z,55.90
2022-10-29T22:08:30.918Z,55.90
2022-10-29T22:10:59.785Z,56.00
2022-10-29T22:13:27.039Z,56.00
2022-10-29T22:15:53.882Z,55.90
2022-10-29T22:18:20.931Z,55.80
2022-10-29T22:20:48.185Z,55.90
2022-10-29T22:25:41.622Z,55.80
2022-10-29T22:28:09.754Z,55.80
2022-10-29T22:30:36.585Z,55.80
2022-10-29T22:33:03.415Z,55.80
2022-10-29T22:35:30.124Z,55.90
2022-10-29T22:40:23.555Z,56.10
2022-10-29T22:42:50.278Z,56.40
2022-10-29T22:45:18.410Z,56.40
2022-10-29T22:47:45.117Z,56.40
2022-10-29T22:50:11.882Z,56.30
2022-10-29T22:55:10.287Z,56.40
2022-10-29T22:57:37.038Z,56.30
2022-10-29T23:00:04.462Z,56.40
2022-10-29T23:02:32.651Z,56.40
2022-10-29T23:04:59.449Z,56.60
2022-10-29T23:07:26.918Z,56.60
2022-10-29T23:09:53.625Z,56.40
2022-10-29T23:12:20.393Z,56.30
2022-10-29T23:14:47.107Z,56.20
2022-10-29T23:17:19.640Z,56.20
2022-10-29T23:19:47.707Z,56.40
2022-10-29T23:24:42.120Z,56.60
2022-10-29T23:27:08.869Z,56.40
2022-10-29T23:29:35.576Z,56.30
2022-10-29T23:32:02.315Z,56.30
2022-10-29T23:34:29.077Z,56.50
2022-10-29T23:36:57.242Z,56.50
2022-10-29T23:39:23.946Z,56.60
2022-10-29T23:41:50.651Z,56.50
2022-10-29T23:44:17.347Z,56.50
2022-10-29T23:46:44.078Z,56.50
2022-10-29T23:49:10.853Z,56.40
2022-10-29T23:51:37.611Z,56.30
2022-10-29T23:54:05.793Z,56.10
2022-10-29T23:56:32.680Z,56.30
2022-10-29T23:58:59.546Z,56.20
